Lisle, New York
Current Conditions -  °F | °C
As of 4:53 PM on Monday 20 Oct 2014 (Local Time) from KBGM Reporting Station
Overcast Overcast  
Wind Chill: 50°   Ceiling: 8000
Heat Index: 50°   Visibility: 10mi
Dew Point: 36°   Wind: 7mph
Humidity: 59%   Direction: 210°SSW
Pressure: 29.9"   Gusts: NA
Location:  42.35°N, 76°W
Report Text: KBGM 202053Z 21006KT 10SM OVC080 10/02 A2990 RMK AO2 SLP134 T01000022 56007
Loading
Personal Weather Stations






























Interactive Weather Map
Tropical Storm Tracking
New forecast layout! Learn more

10-Day Weather Forecast

Advertisements
Track Severe Weather on mobile